METAR Data
IDs: Format: Raw Decoded Include TAF

Data at: 0811 UTC 25 Apr 2019

KDNA 250755Z AUTO 00000KT 10SM CLR 15/03 A3000 RMK AO2
KDNA 250735Z AUTO 00000KT 10SM CLR 16/03 A3000 RMK AO2
KDNA 250715Z AUTO 00000KT 10SM CLR 16/03 A3001 RMK AO2
KDNA 250655Z AUTO 00000KT 10SM CLR 17/02 A3001 RMK AO2
KDNA 250615Z AUTO 00000KT 10SM CLR 18/02 A3001 RMK AO2
KDNA 250555Z AUTO 00000KT 10SM CLR 16/03 A3001 RMK AO2
KDNA 250535Z AUTO 00000KT 10SM CLR 17/02 A3001 RMK AO2
KDNA 250515Z AUTO 00000KT 10SM CLR 17/02 A3001 RMK AO2
KDNA 250455Z AUTO 00000KT 10SM CLR 18/02 A3001 RMK AO2
KDNA 250435Z AUTO 00000KT 10SM CLR 18/02 A3000 RMK AO2
KDNA 250415Z AUTO 00000KT 10SM CLR 18/02 A3000 RMK AO2
KDNA 250355Z AUTO 00000KT 10SM CLR 19/02 A3000 RMK AO2
KDNA 250335Z AUTO 27003KT 10SM CLR 19/02 A2999 RMK AO2
KDNA 250315Z AUTO 27004KT 10SM CLR 20/02 A2999 RMK AO2
KDNA 250255Z AUTO 27004KT 10SM CLR 20/02 A2998 RMK AO2
KDNA 250235Z AUTO 29006KT 10SM CLR 21/02 A2997 RMK AO2
KDNA 250215Z AUTO 28007G14KT 10SM CLR 22/02 A2997 RMK AO2
KDNA 250155Z AUTO 28009KT 10SM CLR 22/02 A2996 RMK AO2
KDNA 250135Z AUTO 29007KT 10SM CLR 23/M00 A2995 RMK AO2
KDNA 250115Z AUTO 00000KT 10SM CLR 24/M01 A2995 RMK AO2
KDNA 250055Z AUTO 32004KT 10SM CLR 24/M01 A2995 RMK AO2
KDNA 250035Z AUTO 32005KT 10SM FEW110 24/M01 A2995 RMK AO2
KDNA 250015Z AUTO 30006KT 10SM CLR 24/M00 A2995 RMK AO2
KDNA 242355Z AUTO 32007KT 10SM CLR 25/01 A2995 RMK AO2
KDNA 242335Z AUTO 00000G12KT 10SM CLR 25/01 A2995 RMK AO2
KDNA 242315Z AUTO 00000G13KT 10SM FEW080 24/02 A2995 RMK AO2
KDNA 242255Z AUTO 00000G13KT 10SM FEW080 24/02 A2995 RMK AO2
KDNA 242235Z AUTO VRB04G12KT 10SM CLR 24/02 A2995 RMK AO2
KDNA 242215Z AUTO VRB06G14KT 10SM CLR 24/03 A2995 RMK AO2
KDNA 242155Z AUTO 32010G18KT 10SM FEW080 24/02 A2996 RMK AO2
KDNA 242135Z AUTO 30008KT 10SM FEW075 24/02 A2996 RMK AO2
KDNA 242115Z AUTO 31008G13KT 10SM FEW070 24/03 A2997 RMK AO2
KDNA 242055Z AUTO 30010G15KT 10SM CLR 23/03 A2998 RMK AO2
KDNA 242035Z AUTO 28011KT 10SM CLR 23/03 A2999 RMK AO2
KDNA 242015Z AUTO VRB06G17KT 10SM FEW065 FEW080 23/03 A3000 RMK AO2
KDNA 241955Z AUTO 31006G14KT 10SM SCT065 SCT080 23/04 A3000 RMK AO2
KDNA 241935Z AUTO 28009KT 10SM CLR 22/05 A3001 RMK AO2
KDNA 241915Z AUTO 29005G13KT 10SM CLR 21/05 A3002 RMK AO2
KDNA 241855Z AUTO 30008KT 10SM CLR 21/06 A3002 RMK AO2
KDNA 241835Z AUTO 29006G12KT 10SM CLR 20/06 A3003 RMK AO2
KDNA 241815Z AUTO 31005G10KT 10SM CLR 20/06 A3004 RMK AO2
KDNA 241755Z AUTO 29007KT 260V320 10SM CLR 19/06 A3004 RMK AO2
KDNA 241735Z AUTO 00000KT 10SM CLR 18/05 A3005 RMK AO2
KDNA 241715Z AUTO 00000KT 10SM CLR 18/07 A3005 RMK AO2
KDNA 241655Z AUTO 00000KT 10SM CLR 17/07 A3005 RMK AO2
KDNA 241635Z AUTO 00000KT 10SM CLR 16/07 A3005 RMK AO2
KDNA 241615Z AUTO 00000KT 10SM CLR 16/07 A3005 RMK AO2
KDNA 241555Z AUTO 00000KT 10SM CLR 16/08 A3006 RMK AO2
KDNA 241535Z AUTO 33004KT 10SM CLR 15/09 A3005 RMK AO2
KDNA 241515Z AUTO 00000KT 10SM CLR 15/09 A3005 RMK AO2
KDNA 241455Z AUTO 00000KT 10SM CLR 14/09 A3005 RMK AO2
KDNA 241435Z AUTO 00000KT 10SM CLR 13/08 A3006 RMK AO2
KDNA 241415Z AUTO 00000KT 10SM CLR 13/08 A3005 RMK AO2
KDNA 241355Z AUTO 00000KT 10SM CLR 13/07 A3005 RMK AO2
KDNA 241335Z AUTO 00000KT 10SM CLR 12/08 A3004 RMK AO2
KDNA 241315Z AUTO 00000KT 10SM CLR 10/08 A3004 RMK AO2
KDNA 241255Z AUTO 00000KT 10SM CLR 09/08 A3004 RMK AO2
KDNA 241235Z AUTO 00000KT 10SM CLR 09/07 A3003 RMK AO2
KDNA 241215Z AUTO 00000KT 10SM CLR 10/08 A3002 RMK AO2
KDNA 241155Z AUTO 00000KT 10SM CLR 10/08 A3001 RMK AO2
KDNA 241135Z AUTO 00000KT 10SM CLR 10/08 A3001 RMK AO2
KDNA 241115Z AUTO 00000KT 10SM CLR 11/08 A3001 RMK AO2
KDNA 241055Z AUTO 00000KT 10SM CLR 10/08 A3001 RMK AO2
KDNA 241035Z AUTO 00000KT 10SM CLR 12/07 A3001 RMK AO2
KDNA 241015Z AUTO 00000KT 10SM CLR 12/08 A3001 RMK AO2
KDNA 240955Z AUTO 00000KT 10SM CLR 12/08 A3001 RMK AO2
KDNA 240935Z AUTO 00000KT 10SM CLR 12/09 A3000 RMK AO2
KDNA 240915Z AUTO 00000KT 10SM CLR 12/09 A2999 RMK AO2
KDNA 240855Z AUTO 00000KT 10SM CLR 12/09 A2999 RMK AO2
KDNA 240835Z AUTO 00000KT 10SM BKN100 12/09 A3000 RMK AO2
KDNA 240815Z AUTO 00000KT 10SM OVC100 13/09 A3000 RMK AO2
KDNA 240755Z AUTO 00000KT 10SM FEW075 SCT090 BKN110 12/09 A3001 RMK AO2
KDNA 240735Z AUTO 00000KT 10SM SCT075 OVC090 13/09 A3001 RMK AO2
KDNA 240715Z AUTO 00000KT 10SM FEW065 BKN095 OVC110 13/08 A3002 RMK AO2
KDNA 240655Z AUTO 00000KT 10SM FEW055 SCT070 BKN080 13/08 A3002 RMK AO2
KDNA 240635Z AUTO 00000KT 10SM FEW070 SCT080 OVC100 12/08 A3002 RMK AO2
KDNA 240615Z AUTO 00000KT 10SM FEW065 BKN100 OVC120 13/07 A3003 RMK AO2
KDNA 240555Z AUTO 36004G15KT 10SM FEW041 BKN060 OVC095 14/06 A3001 RMK AO2
KDNA 240535Z AUTO 04009KT 10SM FEW047 SCT060 BKN075 13/07 A3001 RMK AO2
KDNA 240515Z AUTO 09012G19KT 10SM FEW032 BKN075 OVC090 12/09 A2998 RMK AO2
KDNA 240455Z AUTO 02008KT 10SM FEW047 SCT065 BKN075 12/09 A3000 RMK AO2 P0001
KDNA 240435Z AUTO 35008KT 10SM SCT060 BKN075 OVC120 13/08 A3002 RMK AO2
KDNA 240415Z AUTO 36006KT 10SM -RA OVC055 12/08 A3004 RMK AO2
KDNA 240355Z AUTO 35006KT 8SM -RA BKN060 OVC070 13/08 A3004 RMK AO2 P0001
KDNA 240335Z AUTO 34005G11KT 10SM VCTS DZ SCT031 BKN060 OVC075 13/08 A3004 RMK AO2 LTG DSNT NE
KDNA 240315Z AUTO 02011KT 6SM -TSRA FEW029 SCT035 BKN046 13/08 A3003 RMK AO2 LTG DSNT NE AND E
KDNA 240255Z AUTO 32004KT 9SM -TSRA FEW037 SCT048 OVC060 13/09 A3004 RMK AO2 LTG DSNT NW-NE P0005
KDNA 240215Z AUTO 31018KT 6SM TSRA FEW004 BKN065 OVC090 13/08 A2999 RMK AO2 LTG DSNT ALQDS
KDNA 240155Z AUTO 02006G12KT 10SM TS SCT070 OVC090 19/04 A2997 RMK AO2 LTG DSNT ALQDS
KDNA 240135Z AUTO 09010G17KT 10SM VCTS FEW070 BKN095 BKN110 19/04 A2991 RMK AO2 LTG DSNT SW AND NW
KDNA 240115Z AUTO 09013G22KT 10SM VCTS CLR 20/04 A2991 RMK AO2 LTG DSNT N AND NW
KDNA 240055Z AUTO 11008G14KT 10SM CLR 20/05 A2989 RMK AO2
KDNA 240035Z AUTO 11010KT 10SM TS CLR 21/03 A2989 RMK AO2 LTG DSNT N AND W
KDNA 240015Z AUTO 11009G15KT 10SM FEW095 22/03 A2990 RMK AO2
KDNA 232355Z AUTO 13009G18KT 10SM FEW090 22/04 A2990 RMK AO2
KDNA 232335Z AUTO 12009G16KT 10SM FEW085 23/05 A2989 RMK AO2 LTG DSNT W AND NW
KDNA 232315Z AUTO 14004KT 10SM CLR 24/00 A2989 RMK AO2
KDNA 232255Z AUTO 00000G10KT 10SM CLR 25/01 A2990 RMK AO2
KDNA 232235Z AUTO 09005G12KT 10SM CLR 24/03 A2990 RMK AO2
KDNA 232215Z AUTO 11005KT 10SM CLR 23/04 A2991 RMK AO2 LTG DSNT NE AND W
KDNA 232155Z AUTO 13004G13KT 10SM CLR 22/03 A2991 RMK AO2
KDNA 232135Z AUTO 00000G10KT 10SM FEW100 24/02 A2991 RMK AO2
KDNA 232115Z AUTO VRB04G11KT 10SM FEW070 SCT085 25/03 A2992 RMK AO2
KDNA 232055Z AUTO 00000KT 10SM FEW070 25/03 A2993 RMK AO2 LTG DSNT NE
KDNA 232035Z AUTO 00000KT 10SM CLR 23/03 A2994 RMK AO2
KDNA 232015Z AUTO 00000G11KT 10SM CLR 24/03 A2995 RMK AO2